CMX2 weather

Maxville Airport
Maxville, Ontario, Canada

Public forecast

Using degrees Celsius for public forecast. Weather courtesy of forecast.io.

Closest aviation weather report (METAR) to Maxville Airport

Closest report is Massena International Richards Field, 21.7 nm (40.1 km) S. Retrieved 2020/05/29 18:53 UTC (49 minutes ago):

KMSS 291853Z AUTO 21010G15KT 10SM BKN055 29/17 A2974 RMK AO2 SLP068 T02890172

Closest aviation forecast (TAF) to Maxville Airport

Closest forecast is Massena International Richards Field, 21.7 nm (40.1 km) S. Retrieved 2020/05/29 18:39 UTC (1 hour ago):

TAF KMSS 291736Z 2918/3018 22013G21KT P6SM VCSH SCT150 FM300000 21010KT 4SM -SHRA BR OVC080 FM300500 22011G19KT P6SM VCSH BKN029 FM301200 26011KT P6SM BKN025